createdAt,value
2019-01-14T00:01:16.715Z,19.90
2019-01-14T00:04:32.353Z,19.90
2019-01-14T00:07:46.066Z,19.90
2019-01-14T00:11:08.745Z,19.80
2019-01-14T00:14:24.614Z,19.80
2019-01-14T00:17:39.925Z,19.80
2019-01-14T00:20:55.790Z,19.80
2019-01-14T00:24:11.562Z,19.80
2019-01-14T00:27:27.346Z,19.80
2019-01-14T00:30:43.155Z,19.80
2019-01-14T00:33:59.106Z,19.80
2019-01-14T00:37:14.339Z,19.80
2019-01-14T00:40:29.986Z,19.80
2019-01-14T00:43:45.734Z,19.80
2019-01-14T00:47:01.793Z,19.80
2019-01-14T00:50:17.246Z,19.80
2019-01-14T00:53:32.417Z,19.80
2019-01-14T00:56:48.430Z,19.70
2019-01-14T01:00:01.969Z,19.80
2019-01-14T01:03:24.653Z,19.80
2019-01-14T01:06:40.462Z,19.70
2019-01-14T01:09:43.722Z,19.70
2019-01-14T01:13:06.493Z,19.70
2019-01-14T01:16:29.170Z,19.70
2019-01-14T01:19:45.031Z,19.70
2019-01-14T01:23:01.157Z,19.70
2019-01-14T01:26:17.061Z,19.70
2019-01-14T01:29:34.548Z,19.70
2019-01-14T01:32:49.895Z,19.70
2019-01-14T01:36:05.125Z,19.70
2019-01-14T01:39:20.777Z,19.70
2019-01-14T01:42:36.666Z,19.70
2019-01-14T01:45:52.722Z,19.70
2019-01-14T01:49:08.290Z,19.70
2019-01-14T01:52:23.481Z,19.70
2019-01-14T01:55:39.237Z,19.60
2019-01-14T01:58:55.338Z,19.60
2019-01-14T02:02:10.979Z,19.60
2019-01-14T02:05:27.013Z,19.60
2019-01-14T02:08:43.130Z,19.60
2019-01-14T02:11:58.902Z,19.60
2019-01-14T02:15:14.586Z,19.60
2019-01-14T02:18:30.471Z,19.60
2019-01-14T02:21:46.559Z,19.60
2019-01-14T02:25:02.575Z,19.60
2019-01-14T02:28:18.110Z,19.60
2019-01-14T02:31:34.050Z,19.60
2019-01-14T02:34:49.471Z,19.60
2019-01-14T02:38:05.335Z,19.60
2019-01-14T02:41:21.350Z,19.60
2019-01-14T02:44:37.223Z,19.50
2019-01-14T02:47:53.134Z,19.50
2019-01-14T02:51:08.846Z,19.50
2019-01-14T02:54:24.503Z,19.50
2019-01-14T02:57:37.953Z,19.50
2019-01-14T03:00:53.933Z,19.50
2019-01-14T03:04:09.382Z,19.50
2019-01-14T03:07:25.571Z,19.50
2019-01-14T03:10:41.634Z,19.50
2019-01-14T03:13:56.983Z,19.50
2019-01-14T03:17:13.011Z,19.50
2019-01-14T03:20:29.003Z,19.50
2019-01-14T03:23:44.877Z,19.50
2019-01-14T03:27:01.014Z,19.50
2019-01-14T03:30:16.732Z,19.50
2019-01-14T03:33:32.645Z,19.50
2019-01-14T03:36:48.435Z,19.50
2019-01-14T03:40:02.077Z,19.50
2019-01-14T03:43:24.778Z,19.40
2019-01-14T03:46:41.258Z,19.40
2019-01-14T03:49:57.154Z,19.40
2019-01-14T03:53:12.589Z,19.40
2019-01-14T03:56:26.126Z,19.40
2019-01-14T03:59:48.887Z,19.40
2019-01-14T04:03:04.236Z,19.40
2019-01-14T04:06:19.457Z,19.40
2019-01-14T04:09:34.673Z,19.40
2019-01-14T04:12:50.663Z,19.40
2019-01-14T04:16:06.693Z,19.40
2019-01-14T04:19:09.965Z,19.40
2019-01-14T04:22:32.642Z,19.40
2019-01-14T04:25:48.254Z,19.40
2019-01-14T04:29:04.295Z,19.40
2019-01-14T04:32:19.787Z,19.40
2019-01-14T04:35:35.499Z,19.40
2019-01-14T04:38:50.826Z,19.40
2019-01-14T04:42:06.677Z,19.30
2019-01-14T04:45:20.214Z,19.40
2019-01-14T04:48:35.867Z,19.30
2019-01-14T04:51:51.711Z,19.30
2019-01-14T04:55:08.265Z,19.30
2019-01-14T04:58:24.142Z,19.30
2019-01-14T05:01:40.286Z,19.30
2019-01-14T05:04:56.261Z,19.30
2019-01-14T05:08:09.838Z,19.30
2019-01-14T05:11:25.477Z,19.30
2019-01-14T05:14:40.772Z,19.30
2019-01-14T05:17:56.051Z,19.30
2019-01-14T05:21:12.024Z,19.30
2019-01-14T05:24:27.338Z,19.30
2019-01-14T05:27:30.590Z,19.30
2019-01-14T05:30:53.270Z,19.30
2019-01-14T05:34:15.957Z,19.30
2019-01-14T05:37:38.636Z,19.30
2019-01-14T05:40:53.852Z,19.20
2019-01-14T05:44:09.902Z,19.50
2019-01-14T05:47:25.935Z,19.20
2019-01-14T05:50:41.202Z,19.20
2019-01-14T05:53:56.958Z,19.20
2019-01-14T05:57:12.731Z,19.20
2019-01-14T06:00:30.202Z,19.20
2019-01-14T06:03:45.562Z,19.20
2019-01-14T06:07:00.794Z,19.20
2019-01-14T06:10:14.457Z,19.20
2019-01-14T06:13:37.179Z,19.20
2019-01-14T06:16:53.286Z,19.20
2019-01-14T06:20:09.222Z,19.20
2019-01-14T06:23:24.902Z,19.20
2019-01-14T06:26:40.539Z,19.20
2019-01-14T06:29:56.303Z,19.20
2019-01-14T06:33:12.147Z,19.20
2019-01-14T06:36:27.859Z,19.20
2019-01-14T06:39:43.918Z,19.20
2019-01-14T06:42:59.527Z,19.20
2019-01-14T06:46:15.242Z,19.20
2019-01-14T06:49:30.809Z,19.20
2019-01-14T06:56:17.822Z,19.20
2019-01-14T06:59:41.101Z,19.20
2019-01-14T07:02:57.853Z,19.20
2019-01-14T07:06:13.979Z,19.20
2019-01-14T07:09:30.707Z,19.20
2019-01-14T07:12:46.042Z,19.20
2019-01-14T07:16:01.279Z,19.20
2019-01-14T07:19:17.187Z,19.20
2019-01-14T07:22:32.491Z,19.20
2019-01-14T07:25:48.430Z,19.20
2019-01-14T07:29:04.329Z,19.10
2019-01-14T07:32:18.006Z,19.20
2019-01-14T07:35:40.717Z,19.20
2019-01-14T07:38:56.171Z,19.10
2019-01-14T07:42:12.218Z,19.10
2019-01-14T07:45:28.173Z,19.10
2019-01-14T07:48:44.119Z,19.20
2019-01-14T07:51:59.403Z,19.10
2019-01-14T07:55:14.635Z,19.10
2019-01-14T07:58:28.286Z,19.20
2019-01-14T08:01:44.006Z,19.10
2019-01-14T08:04:59.962Z,19.10
2019-01-14T08:08:15.238Z,19.10
2019-01-14T08:11:30.879Z,19.10
2019-01-14T08:14:46.903Z,19.10
2019-01-14T08:18:02.774Z,19.10
2019-01-14T08:21:18.605Z,19.10
2019-01-14T08:24:34.446Z,19.10
2019-01-14T08:27:50.243Z,19.10
2019-01-14T08:31:06.143Z,19.10
2019-01-14T08:34:21.395Z,19.20
2019-01-14T08:37:36.773Z,19.20
2019-01-14T08:40:52.022Z,19.20
2019-01-14T08:44:08.360Z,19.20
2019-01-14T08:47:23.903Z,19.20
2019-01-14T08:50:39.411Z,19.20
2019-01-14T08:53:55.406Z,19.20
2019-01-14T08:57:11.225Z,19.20
2019-01-14T09:00:27.142Z,19.20
2019-01-14T09:03:43.231Z,19.30
2019-01-14T09:06:58.549Z,19.30
2019-01-14T09:10:14.578Z,19.30
2019-01-14T09:13:28.209Z,19.30
2019-01-14T09:16:50.910Z,19.30
2019-01-14T09:20:06.261Z,19.30
2019-01-14T09:23:22.086Z,19.30
2019-01-14T09:26:37.922Z,19.40
2019-01-14T09:29:53.235Z,19.40
2019-01-14T09:33:08.555Z,19.40
2019-01-14T09:36:24.559Z,19.40
2019-01-14T09:39:40.562Z,19.40
2019-01-14T09:42:56.706Z,19.40
2019-01-14T09:46:12.812Z,19.40
2019-01-14T09:49:28.658Z,19.40
2019-01-14T09:52:47.651Z,19.40
2019-01-14T09:56:03.596Z,19.40
2019-01-14T09:59:19.678Z,19.50
2019-01-14T10:02:34.996Z,19.50
2019-01-14T10:05:50.754Z,19.50
2019-01-14T10:12:40.319Z,19.50
2019-01-14T10:15:56.289Z,19.50
2019-01-14T10:19:12.190Z,19.50
2019-01-14T10:22:28.235Z,19.50
2019-01-14T10:25:44.835Z,19.40
2019-01-14T10:29:00.458Z,19.50
2019-01-14T10:32:16.023Z,19.50
2019-01-14T10:35:31.909Z,19.50
2019-01-14T10:38:50.451Z,19.50
2019-01-14T10:42:05.278Z,19.50
2019-01-14T10:45:20.519Z,19.50
2019-01-14T10:48:36.444Z,19.50
2019-01-14T10:51:52.317Z,19.50
2019-01-14T10:55:12.309Z,19.50
2019-01-14T10:58:25.607Z,19.50
2019-01-14T11:01:40.849Z,19.50
2019-01-14T11:04:57.091Z,19.50
2019-01-14T11:08:12.990Z,19.50
2019-01-14T11:14:45.701Z,19.50
2019-01-14T11:17:48.960Z,19.50
2019-01-14T11:21:14.437Z,19.50
2019-01-14T11:24:31.066Z,19.50
2019-01-14T11:27:46.360Z,19.50
2019-01-14T11:31:01.853Z,19.50
2019-01-14T11:34:17.084Z,19.50
2019-01-14T11:37:33.105Z,19.50
2019-01-14T11:40:49.075Z,19.50
2019-01-14T11:44:05.135Z,19.50
2019-01-14T11:47:21.106Z,19.50
2019-01-14T11:50:36.302Z,19.50
2019-01-14T11:53:52.312Z,19.50
2019-01-14T11:57:07.918Z,19.50
2019-01-14T12:00:23.565Z,19.50
2019-01-14T12:03:39.682Z,19.50
2019-01-14T12:06:55.698Z,19.50
2019-01-14T12:10:11.723Z,19.50
2019-01-14T12:13:27.070Z,19.50
2019-01-14T12:16:43.009Z,19.50
2019-01-14T12:19:56.638Z,19.50
2019-01-14T12:23:19.323Z,19.50
2019-01-14T12:26:34.552Z,19.50
2019-01-14T12:29:50.477Z,19.50
2019-01-14T12:33:05.942Z,19.50
2019-01-14T12:36:21.990Z,19.50
2019-01-14T12:39:38.283Z,19.50
2019-01-14T12:42:54.337Z,19.50
2019-01-14T12:46:07.990Z,19.60
2019-01-14T12:49:23.534Z,19.60
2019-01-14T12:52:38.758Z,19.60
2019-01-14T12:59:11.662Z,19.60
2019-01-14T13:02:27.657Z,19.60
2019-01-14T13:05:42.942Z,19.60
2019-01-14T13:08:58.825Z,19.60
2019-01-14T13:12:16.883Z,19.60
2019-01-14T13:15:33.005Z,19.60
2019-01-14T13:18:49.093Z,19.60
2019-01-14T13:22:05.108Z,19.60
2019-01-14T13:25:21.049Z,19.60
2019-01-14T13:28:37.035Z,19.60
2019-01-14T13:31:53.107Z,19.60
2019-01-14T13:35:08.303Z,19.60
2019-01-14T13:38:24.131Z,19.60
2019-01-14T13:41:39.362Z,19.60
2019-01-14T13:44:55.334Z,19.60
2019-01-14T13:48:10.905Z,19.60
2019-01-14T13:51:26.994Z,19.60
2019-01-14T13:54:42.538Z,19.60
2019-01-14T13:57:59.914Z,19.60
2019-01-14T14:01:15.605Z,19.60
2019-01-14T14:04:31.279Z,19.60
2019-01-14T14:07:46.586Z,19.60
2019-01-14T14:11:02.662Z,19.60
2019-01-14T14:14:17.944Z,19.60
2019-01-14T14:17:33.956Z,19.60
2019-01-14T14:20:50.096Z,19.60
2019-01-14T14:24:05.381Z,19.60
2019-01-14T14:27:21.548Z,19.60
2019-01-14T14:30:37.735Z,19.60
2019-01-14T14:33:53.718Z,19.60
2019-01-14T14:37:09.004Z,19.60
2019-01-14T14:40:25.022Z,19.60
2019-01-14T14:43:40.375Z,19.60
2019-01-14T14:46:56.370Z,19.60
2019-01-14T14:50:11.655Z,19.60
2019-01-14T14:53:27.614Z,19.60
2019-01-14T14:56:43.626Z,19.50
2019-01-14T14:59:57.296Z,19.50
2019-01-14T15:03:20.038Z,19.50
2019-01-14T15:06:36.012Z,19.50
2019-01-14T15:09:55.849Z,19.50
2019-01-14T15:13:09.234Z,19.50
2019-01-14T15:16:25.294Z,19.50
2019-01-14T15:19:38.949Z,19.50
2019-01-14T15:23:01.634Z,19.50
2019-01-14T15:26:16.982Z,19.60
2019-01-14T15:29:32.473Z,19.50
2019-01-14T15:32:47.700Z,19.60
2019-01-14T15:36:03.869Z,19.60
2019-01-14T15:39:19.743Z,19.60
2019-01-14T15:42:35.050Z,19.60
2019-01-14T15:45:50.549Z,19.60
2019-01-14T15:49:05.892Z,19.50
2019-01-14T15:52:21.869Z,19.60
2019-01-14T15:55:37.439Z,19.60
2019-01-14T15:58:53.459Z,19.60
2019-01-14T16:02:09.475Z,19.60
2019-01-14T16:05:25.640Z,19.60
2019-01-14T16:08:39.249Z,19.60
2019-01-14T16:11:54.791Z,19.60
2019-01-14T16:15:10.118Z,19.60
2019-01-14T16:18:26.261Z,19.60
2019-01-14T16:21:41.626Z,19.60
2019-01-14T16:24:56.930Z,19.60
2019-01-14T16:28:13.682Z,19.60
2019-01-14T16:31:29.453Z,19.60
2019-01-14T16:34:47.015Z,19.60
2019-01-14T16:38:02.272Z,19.60
2019-01-14T16:41:18.436Z,19.60
2019-01-14T16:44:33.806Z,19.60
2019-01-14T16:47:48.985Z,19.60
2019-01-14T16:51:04.245Z,19.60
2019-01-14T16:54:20.272Z,19.60
2019-01-14T16:57:35.605Z,19.60
2019-01-14T17:00:50.778Z,19.60
2019-01-14T17:04:06.833Z,19.60
2019-01-14T17:07:22.186Z,19.60
2019-01-14T17:10:37.449Z,19.60
2019-01-14T17:13:52.886Z,19.60
2019-01-14T17:17:06.462Z,19.60
2019-01-14T17:23:51.091Z,19.60
2019-01-14T17:27:07.006Z,19.50
2019-01-14T17:30:24.116Z,19.60
2019-01-14T17:33:39.399Z,19.50
2019-01-14T17:36:55.501Z,19.50
2019-01-14T17:40:10.716Z,19.50
2019-01-14T17:43:33.402Z,19.50
2019-01-14T17:46:49.340Z,19.50
2019-01-14T17:50:05.091Z,19.50
2019-01-14T17:53:20.971Z,19.50
2019-01-14T17:56:36.211Z,19.50
2019-01-14T17:59:52.187Z,19.50
2019-01-14T18:03:07.563Z,19.50
2019-01-14T18:06:23.418Z,19.50
2019-01-14T18:09:39.327Z,19.50
2019-01-14T18:12:55.483Z,19.50
2019-01-14T18:16:11.509Z,19.50
2019-01-14T18:19:26.845Z,19.50
2019-01-14T18:22:42.853Z,19.50
2019-01-14T18:25:56.453Z,19.50
2019-01-14T18:29:19.137Z,19.50
2019-01-14T18:32:32.763Z,19.40
2019-01-14T18:35:55.459Z,19.40
2019-01-14T18:39:11.476Z,19.40
2019-01-14T18:42:27.101Z,19.40
2019-01-14T18:45:43.086Z,19.40
2019-01-14T18:48:59.136Z,19.40
2019-01-14T18:52:15.219Z,19.40
2019-01-14T18:55:31.098Z,19.40
2019-01-14T18:58:47.206Z,19.40
2019-01-14T19:02:03.110Z,19.40
2019-01-14T19:05:20.273Z,19.40
2019-01-14T19:08:36.480Z,19.40
2019-01-14T19:11:52.435Z,19.40
2019-01-14T19:15:08.625Z,19.40
2019-01-14T19:18:11.883Z,19.40
2019-01-14T19:21:34.562Z,19.40
2019-01-14T19:24:57.249Z,19.40
2019-01-14T19:28:13.195Z,19.40
2019-01-14T19:31:29.362Z,19.40
2019-01-14T19:34:44.597Z,19.40
2019-01-14T19:37:59.805Z,19.40
2019-01-14T19:41:13.382Z,19.30
2019-01-14T19:44:36.077Z,19.30
2019-01-14T19:47:58.769Z,19.30
2019-01-14T19:51:15.627Z,19.30
2019-01-14T19:54:31.065Z,19.30
2019-01-14T19:57:47.156Z,19.30
2019-01-14T20:01:02.895Z,19.40
2019-01-14T20:04:19.463Z,19.40
2019-01-14T20:07:35.562Z,19.40
2019-01-14T20:10:51.418Z,19.40
2019-01-14T20:14:07.527Z,19.40
2019-01-14T20:17:23.320Z,19.40
2019-01-14T20:20:39.402Z,19.40
2019-01-14T20:23:54.656Z,19.40
2019-01-14T20:27:10.621Z,19.40
2019-01-14T20:30:26.554Z,19.50
2019-01-14T20:33:42.666Z,19.50
2019-01-14T20:36:58.465Z,19.50
2019-01-14T20:40:14.593Z,19.50
2019-01-14T20:43:30.484Z,19.50
2019-01-14T20:46:45.783Z,19.50
2019-01-14T20:53:20.213Z,19.50
2019-01-14T20:56:35.766Z,19.50
2019-01-14T20:59:49.227Z,19.50
2019-01-14T21:03:04.850Z,19.50
2019-01-14T21:06:20.677Z,19.50
2019-01-14T21:09:35.870Z,19.60
2019-01-14T21:12:51.865Z,19.60
2019-01-14T21:16:07.954Z,19.60
2019-01-14T21:19:23.223Z,19.60
2019-01-14T21:22:38.567Z,19.60
2019-01-14T21:25:54.357Z,19.60
2019-01-14T21:29:12.134Z,19.60
2019-01-14T21:32:27.385Z,19.60
2019-01-14T21:35:42.622Z,19.60
2019-01-14T21:38:58.675Z,19.60
2019-01-14T21:42:12.314Z,19.60
2019-01-14T21:45:35.002Z,19.60
2019-01-14T21:48:51.057Z,19.60
2019-01-14T21:52:06.920Z,19.60
2019-01-14T21:55:22.206Z,19.50
2019-01-14T21:58:38.194Z,19.50
2019-01-14T22:01:53.582Z,19.50
2019-01-14T22:05:09.317Z,19.50
2019-01-14T22:08:25.382Z,19.50
2019-01-14T22:11:41.321Z,19.50
2019-01-14T22:14:56.962Z,19.50
2019-01-14T22:18:12.878Z,19.50
2019-01-14T22:21:28.713Z,19.50
2019-01-14T22:24:44.267Z,19.50
2019-01-14T22:28:00.227Z,19.40
2019-01-14T22:31:15.476Z,19.40
2019-01-14T22:34:31.600Z,19.40
2019-01-14T22:37:45.218Z,19.40
2019-01-14T22:41:07.894Z,19.40
2019-01-14T22:44:23.794Z,19.40
2019-01-14T22:47:39.842Z,19.40
2019-01-14T22:50:53.443Z,19.40
2019-01-14T22:54:08.914Z,19.30
2019-01-14T22:57:25.062Z,19.30
2019-01-14T23:01:00.093Z,19.30
2019-01-14T23:04:15.517Z,19.30
2019-01-14T23:07:31.543Z,19.30
2019-01-14T23:10:47.245Z,19.30
2019-01-14T23:14:03.063Z,19.30
2019-01-14T23:17:16.559Z,19.30
2019-01-14T23:20:32.578Z,19.30
2019-01-14T23:23:48.666Z,19.30
2019-01-14T23:27:04.627Z,19.20
2019-01-14T23:30:20.760Z,19.20
2019-01-14T23:33:36.785Z,19.20
2019-01-14T23:36:52.850Z,19.20
2019-01-14T23:40:08.901Z,19.20
2019-01-14T23:43:24.935Z,19.20
2019-01-14T23:46:40.834Z,19.20
2019-01-14T23:49:56.676Z,19.20
2019-01-14T23:53:11.953Z,19.20
2019-01-14T23:56:28.087Z,19.20
2019-01-14T23:59:43.313Z,19.20
